Time,TemperatureF,DewpointF,PressureIn,WindDirection,WindDirectionDegrees,WindSpeedMPH,WindSpeedGustMPH,Humidity,HourlyPrecipIn,Conditions,Clouds,dailyrainin,SoftwareType,DateUTC
2013-01-21 00:02:00,52.0,1.0,-100.00,North,1,9.0,13.0,12,-99.99,,,-99.99,,2013-01-21 08:02:00,
2013-01-21 00:13:00,51.0,0.0,-100.00,North,355,9.0,14.0,12,-99.99,,,-99.99,,2013-01-21 08:13:00,
2013-01-21 00:22:00,52.0,-1.0,-100.00,North,352,9.0,13.0,11,-99.99,,,-99.99,,2013-01-21 08:22:00,
2013-01-21 00:32:00,51.0,-2.0,-100.00,North,353,8.0,12.0,11,-99.99,,,-99.99,,2013-01-21 08:32:00,
2013-01-21 00:42:00,51.0,0.0,-100.00,North,360,8.0,14.0,12,-99.99,,,-99.99,,2013-01-21 08:42:00,
2013-01-21 00:53:00,51.0,0.0,-100.00,NNE,24,12.0,19.0,12,-99.99,,,-99.99,,2013-01-21 08:53:00,
2013-01-21 01:02:00,52.0,-1.0,-100.00,NE,38,15.0,21.0,11,-99.99,,,-99.99,,2013-01-21 09:02:00,
2013-01-21 01:12:00,52.0,-1.0,-100.00,NE,43,16.0,22.0,11,-99.99,,,-99.99,,2013-01-21 09:12:00,
2013-01-21 01:22:00,52.0,-1.0,-100.00,NE,43,16.0,24.0,11,-99.99,,,-99.99,,2013-01-21 09:22:00,
2013-01-21 01:32:00,52.0,-1.0,-100.00,NE,42,15.0,22.0,11,-99.99,,,-99.99,,2013-01-21 09:32:00,
2013-01-21 01:42:00,53.0,-2.0,-100.00,NE,43,16.0,22.0,10,-99.99,,,-99.99,,2013-01-21 09:42:00,
2013-01-21 01:52:00,53.0,-2.0,-100.00,NE,40,14.0,25.0,10,-99.99,,,-99.99,,2013-01-21 09:52:00,
2013-01-21 02:02:00,53.0,-2.0,-100.00,NE,40,14.0,25.0,10,-99.99,,,-99.99,,2013-01-21 10:02:00,
2013-01-21 02:12:00,52.0,-1.0,-100.00,NE,39,15.0,21.0,11,-99.99,,,-99.99,,2013-01-21 10:12:00,
2013-01-21 02:22:00,52.0,-3.0,-100.00,NE,41,16.0,24.0,10,-99.99,,,-99.99,,2013-01-21 10:22:00,
2013-01-21 02:32:00,52.0,-1.0,-100.00,NE,41,17.0,26.0,11,-99.99,,,-99.99,,2013-01-21 10:32:00,
2013-01-21 02:42:00,52.0,-1.0,-100.00,NE,46,16.0,23.0,11,-99.99,,,-99.99,,2013-01-21 10:42:00,
2013-01-21 02:52:00,52.0,-1.0,-100.00,NE,41,15.0,22.0,11,-99.99,,,-99.99,,2013-01-21 10:52:00,
2013-01-21 03:02:00,52.0,-1.0,-100.00,NE,38,16.0,22.0,11,-99.99,,,-99.99,,2013-01-21 11:02:00,
2013-01-21 03:12:00,52.0,-1.0,-100.00,NE,36,17.0,24.0,11,-99.99,,,-99.99,,2013-01-21 11:12:00,
2013-01-21 03:22:00,52.0,-1.0,-100.00,NE,38,17.0,24.0,11,-99.99,,,-99.99,,2013-01-21 11:22:00,
2013-01-21 03:32:00,51.0,-2.0,-100.00,NE,39,16.0,24.0,11,-99.99,,,-99.99,,2013-01-21 11:32:00,
2013-01-21 03:42:00,51.0,-2.0,-100.00,NE,39,16.0,24.0,11,-99.99,,,-99.99,,2013-01-21 11:42:00,
2013-01-21 03:53:00,52.0,-1.0,-100.00,NE,40,17.0,25.0,11,-99.99,,,-99.99,,2013-01-21 11:53:00,
2013-01-21 04:02:00,51.0,-2.0,-100.00,NE,39,17.0,24.0,11,-99.99,,,-99.99,,2013-01-21 12:02:00,
2013-01-21 04:12:00,52.0,-1.0,-100.00,NE,40,19.0,27.0,11,-99.99,,,-99.99,,2013-01-21 12:12:00,
2013-01-21 04:22:00,51.0,-2.0,-100.00,NE,40,20.0,29.0,11,-99.99,,,-99.99,,2013-01-21 12:22:00,
2013-01-21 04:32:00,51.0,-2.0,-100.00,NE,43,19.0,26.0,11,-99.99,,,-99.99,,2013-01-21 12:32:00,
2013-01-21 04:42:00,51.0,-2.0,-100.00,NE,45,18.0,26.0,11,-99.99,,,-99.99,,2013-01-21 12:42:00,
2013-01-21 04:52:00,51.0,-2.0,-100.00,NE,44,18.0,28.0,11,-99.99,,,-99.99,,2013-01-21 12:52:00,
2013-01-21 05:02:00,51.0,-2.0,-100.00,NE,39,20.0,29.0,11,-99.99,,,-99.99,,2013-01-21 13:02:00,
2013-01-21 05:12:00,51.0,-2.0,-100.00,NE,39,20.0,30.0,11,-99.99,,,-99.99,,2013-01-21 13:12:00,
2013-01-21 05:22:00,51.0,-2.0,-100.00,NE,38,20.0,28.0,11,-99.99,,,-99.99,,2013-01-21 13:22:00,
2013-01-21 05:32:00,50.0,-2.0,-100.00,NE,41,18.0,26.0,11,-99.99,,,-99.99,,2013-01-21 13:32:00,
2013-01-21 05:42:00,50.0,-2.0,-100.00,NE,41,18.0,26.0,11,-99.99,,,-99.99,,2013-01-21 13:42:00,
2013-01-21 05:53:00,51.0,-2.0,-100.00,NE,48,19.0,31.0,11,-99.99,,,-99.99,,2013-01-21 13:53:00,
2013-01-21 06:03:00,51.0,-2.0,-100.00,NE,46,18.0,26.0,11,-99.99,,,-99.99,,2013-01-21 14:03:00,
2013-01-21 06:12:00,50.0,-2.0,-100.00,NE,43,19.0,30.0,11,-99.99,,,-99.99,,2013-01-21 14:12:00,
2013-01-21 06:22:00,51.0,-2.0,-100.00,NE,41,18.0,28.0,11,-99.99,,,-99.99,,2013-01-21 14:22:00,
2013-01-21 06:32:00,50.0,-2.0,-100.00,NE,38,18.0,26.0,11,-99.99,,,-99.99,,2013-01-21 14:32:00,
2013-01-21 06:43:00,50.0,-2.0,-100.00,NE,36,18.0,28.0,11,-99.99,,,-99.99,,2013-01-21 14:43:00,
2013-01-21 06:52:00,50.0,-2.0,-100.00,NE,36,18.0,27.0,11,-99.99,,,-99.99,,2013-01-21 14:52:00,
2013-01-21 07:03:00,50.0,-2.0,-100.00,NE,36,19.0,27.0,11,-99.99,,,-99.99,,2013-01-21 15:03:00,
2013-01-21 07:12:00,50.0,-2.0,-100.00,NE,35,19.0,28.0,11,-99.99,,,-99.99,,2013-01-21 15:12:00,
2013-01-21 07:22:00,50.0,-1.0,-100.00,NNE,32,19.0,27.0,12,-99.99,,,-99.99,,2013-01-21 15:22:00,
2013-01-21 07:32:00,50.0,-2.0,-100.00,NNE,32,19.0,26.0,11,-99.99,,,-99.99,,2013-01-21 15:32:00,
2013-01-21 07:42:00,51.0,-2.0,-100.00,NE,36,20.0,26.0,11,-99.99,,,-99.99,,2013-01-21 15:42:00,
2013-01-21 07:52:00,52.0,-1.0,-100.00,NE,39,20.0,29.0,11,-99.99,,,-99.99,,2013-01-21 15:52:00,
2013-01-21 08:03:00,52.0,-1.0,-100.00,NE,39,20.0,29.0,11,-99.99,,,-99.99,,2013-01-21 16:03:00,
2013-01-21 08:12:00,52.0,-1.0,-100.00,NE,43,20.0,28.0,11,-99.99,,,-99.99,,2013-01-21 16:12:00,
2013-01-21 08:22:00,53.0,0.0,-100.00,NE,44,20.0,30.0,11,-99.99,,,-99.99,,2013-01-21 16:22:00,
2013-01-21 08:32:00,53.0,0.0,-100.00,NE,41,20.0,29.0,11,-99.99,,,-99.99,,2013-01-21 16:32:00,
2013-01-21 08:43:00,54.0,1.0,-100.00,NE,43,20.0,31.0,11,-99.99,,,-99.99,,2013-01-21 16:43:00,
2013-01-21 08:53:00,54.0,-1.0,-100.00,NE,44,21.0,32.0,10,-99.99,,,-99.99,,2013-01-21 16:53:00,
2013-01-21 09:02:00,54.0,-1.0,-100.00,NE,44,21.0,32.0,10,-99.99,,,-99.99,,2013-01-21 17:02:00,
2013-01-21 09:12:00,55.0,-1.0,-100.00,NE,46,23.0,34.0,10,-99.99,,,-99.99,,2013-01-21 17:12:00,
2013-01-21 09:22:00,56.0,0.0,-100.00,NE,49,21.0,29.0,10,-99.99,,,-99.99,,2013-01-21 17:22:00,
2013-01-21 09:33:00,56.0,0.0,-100.00,NE,52,22.0,32.0,10,-99.99,,,-99.99,,2013-01-21 17:33:00,
2013-01-21 09:42:00,56.0,0.0,-100.00,NE,51,22.0,31.0,10,-99.99,,,-99.99,,2013-01-21 17:42:00,
2013-01-21 09:52:00,57.0,1.0,-100.00,NE,48,22.0,34.0,10,-99.99,,,-99.99,,2013-01-21 17:52:00,
2013-01-21 10:02:00,57.0,1.0,-100.00,NE,53,22.0,34.0,10,-99.99,,,-99.99,,2013-01-21 18:02:00,
2013-01-21 10:12:00,57.0,1.0,-100.00,NE,53,21.0,31.0,10,-99.99,,,-99.99,,2013-01-21 18:12:00,
2013-01-21 10:22:00,57.0,1.0,-100.00,NE,49,21.0,29.0,10,-99.99,,,-99.99,,2013-01-21 18:22:00,
2013-01-21 10:33:00,57.0,1.0,-100.00,NE,55,20.0,30.0,10,-99.99,,,-99.99,,2013-01-21 18:33:00,
2013-01-21 10:42:00,57.0,1.0,-100.00,NE,52,19.0,30.0,10,-99.99,,,-99.99,,2013-01-21 18:42:00,
2013-01-21 10:52:00,58.0,2.0,-100.00,NE,51,19.0,29.0,10,-99.99,,,-99.99,,2013-01-21 18:52:00,
2013-01-21 11:02:00,58.0,2.0,-100.00,NE,51,19.0,30.0,10,-99.99,,,-99.99,,2013-01-21 19:02:00,
2013-01-21 11:12:00,58.0,2.0,-100.00,NE,48,17.0,27.0,10,-99.99,,,-99.99,,2013-01-21 19:12:00,
2013-01-21 11:22:00,58.0,2.0,-100.00,NE,48,17.0,28.0,10,-99.99,,,-99.99,,2013-01-21 19:22:00,
2013-01-21 11:32:00,59.0,0.0,-100.00,NE,47,16.0,27.0,9,-99.99,,,-99.99,,2013-01-21 19:32:00,
2013-01-21 11:42:00,58.0,0.0,-100.00,NE,45,18.0,27.0,9,-99.99,,,-99.99,,2013-01-21 19:42:00,
2013-01-21 11:52:00,59.0,3.0,-100.00,NE,44,17.0,27.0,10,-99.99,,,-99.99,,2013-01-21 19:52:00,
2013-01-21 12:12:00,59.0,3.0,-100.00,NE,40,17.0,26.0,10,-99.99,,,-99.99,,2013-01-21 20:12:00,
2013-01-21 12:22:00,59.0,3.0,-100.00,NE,45,17.0,28.0,10,-99.99,,,-99.99,,2013-01-21 20:22:00,
2013-01-21 12:32:00,59.0,3.0,-100.00,NE,44,16.0,25.0,10,-99.99,,,-99.99,,2013-01-21 20:32:00,
2013-01-21 12:42:00,59.0,3.0,-100.00,NE,44,16.0,25.0,10,-99.99,,,-99.99,,2013-01-21 20:42:00,
2013-01-21 12:52:00,59.0,3.0,-100.00,NE,47,18.0,26.0,10,-99.99,,,-99.99,,2013-01-21 20:52:00,
2013-01-21 13:02:00,59.0,3.0,-100.00,NE,49,17.0,28.0,10,-99.99,,,-99.99,,2013-01-21 21:02:00,
2013-01-21 13:12:00,58.0,2.0,-100.00,NE,43,18.0,25.0,10,-99.99,,,-99.99,,2013-01-21 21:12:00,
2013-01-21 13:22:00,59.0,3.0,-100.00,NE,41,17.0,25.0,10,-99.99,,,-99.99,,2013-01-21 21:22:00,
2013-01-21 13:32:00,59.0,3.0,-100.00,NE,49,18.0,25.0,10,-99.99,,,-99.99,,2013-01-21 21:32:00,
2013-01-21 13:43:00,59.0,3.0,-100.00,NE,49,17.0,27.0,10,-99.99,,,-99.99,,2013-01-21 21:43:00,
2013-01-21 13:53:00,59.0,3.0,-100.00,NE,49,19.0,26.0,10,-99.99,,,-99.99,,2013-01-21 21:53:00,
2013-01-21 14:02:00,59.0,3.0,-100.00,NE,49,19.0,26.0,10,-99.99,,,-99.99,,2013-01-21 22:02:00,
2013-01-21 14:12:00,59.0,3.0,-100.00,NE,53,19.0,28.0,10,-99.99,,,-99.99,,2013-01-21 22:12:00,
2013-01-21 14:22:00,59.0,3.0,-100.00,NE,53,18.0,27.0,10,-99.99,,,-99.99,,2013-01-21 22:22:00,
2013-01-21 14:33:00,59.0,3.0,-100.00,ENE,58,17.0,25.0,10,-99.99,,,-99.99,,2013-01-21 22:33:00,
2013-01-21 14:42:00,59.0,3.0,-100.00,ENE,58,17.0,25.0,10,-99.99,,,-99.99,,2013-01-21 22:42:00,
2013-01-21 14:52:00,59.0,3.0,-100.00,NE,53,18.0,25.0,10,-99.99,,,-99.99,,2013-01-21 22:52:00,
2013-01-21 15:02:00,59.0,3.0,-100.00,NE,53,18.0,25.0,10,-99.99,,,-99.99,,2013-01-21 23:02:00,
2013-01-21 15:12:00,59.0,3.0,-100.00,NE,49,17.0,24.0,10,-99.99,,,-99.99,,2013-01-21 23:12:00,
2013-01-21 15:22:00,58.0,2.0,-100.00,NE,50,18.0,24.0,10,-99.99,,,-99.99,,2013-01-21 23:22:00,
2013-01-21 15:32:00,58.0,2.0,-100.00,NE,55,17.0,23.0,10,-99.99,,,-99.99,,2013-01-21 23:32:00,
2013-01-21 15:42:00,58.0,2.0,-100.00,NE,55,17.0,23.0,10,-99.99,,,-99.99,,2013-01-21 23:42:00,
2013-01-21 15:52:00,58.0,2.0,-100.00,NE,56,18.0,24.0,10,-99.99,,,-99.99,,2013-01-21 23:52:00,
2013-01-21 16:02:00,58.0,2.0,-100.00,ENE,57,17.0,25.0,10,-99.99,,,-99.99,,2013-01-22 00:02:00,
2013-01-21 16:12:00,58.0,2.0,-100.00,ENE,57,16.0,23.0,10,-99.99,,,-99.99,,2013-01-22 00:12:00,
2013-01-21 16:22:00,57.0,1.0,-100.00,NE,56,16.0,23.0,10,-99.99,,,-99.99,,2013-01-22 00:22:00,
2013-01-21 16:32:00,57.0,3.0,-100.00,NE,51,14.0,21.0,11,-99.99,,,-99.99,,2013-01-22 00:32:00,
2013-01-21 16:42:00,57.0,3.0,-100.00,NE,51,14.0,21.0,11,-99.99,,,-99.99,,2013-01-22 00:42:00,
2013-01-21 16:53:00,56.0,2.0,-100.00,NE,47,13.0,19.0,11,-99.99,,,-99.99,,2013-01-22 00:53:00,
2013-01-21 17:02:00,55.0,1.0,-100.00,NE,41,14.0,20.0,11,-99.99,,,-99.99,,2013-01-22 01:02:00,
2013-01-21 17:12:00,55.0,1.0,-100.00,NE,41,14.0,21.0,11,-99.99,,,-99.99,,2013-01-22 01:12:00,
2013-01-21 17:22:00,54.0,3.0,-100.00,NE,34,12.0,17.0,12,-99.99,,,-99.99,,2013-01-22 01:22:00,
2013-01-21 17:32:00,53.0,2.0,-100.00,NNE,33,13.0,20.0,12,-99.99,,,-99.99,,2013-01-22 01:32:00,
2013-01-21 17:42:00,53.0,2.0,-100.00,NNE,33,13.0,20.0,12,-99.99,,,-99.99,,2013-01-22 01:42:00,
2013-01-21 17:52:00,53.0,2.0,-100.00,NE,48,15.0,23.0,12,-99.99,,,-99.99,,2013-01-22 01:52:00,
2013-01-21 18:02:00,53.0,2.0,-100.00,NE,50,16.0,24.0,12,-99.99,,,-99.99,,2013-01-22 02:02:00,
2013-01-21 18:12:00,53.0,2.0,-100.00,NE,49,16.0,22.0,12,-99.99,,,-99.99,,2013-01-22 02:12:00,
2013-01-21 18:22:00,52.0,1.0,-100.00,NE,50,16.0,22.0,12,-99.99,,,-99.99,,2013-01-22 02:22:00,
2013-01-21 18:32:00,52.0,1.0,-100.00,NE,50,15.0,23.0,12,-99.99,,,-99.99,,2013-01-22 02:32:00,
2013-01-21 18:42:00,51.0,0.0,-100.00,NE,45,14.0,18.0,12,-99.99,,,-99.99,,2013-01-22 02:42:00,
2013-01-21 18:52:00,52.0,1.0,-100.00,NNE,19,7.0,16.0,12,-99.99,,,-99.99,,2013-01-22 02:52:00,
2013-01-21 19:02:00,52.0,-1.0,-100.00,NW,319,5.0,10.0,11,-99.99,,,-99.99,,2013-01-22 03:02:00,
2013-01-21 19:12:00,51.0,0.0,-100.00,NNE,14,9.0,18.0,12,-99.99,,,-99.99,,2013-01-22 03:12:00,
2013-01-21 19:22:00,51.0,0.0,-100.00,NNE,13,12.0,20.0,12,-99.99,,,-99.99,,2013-01-22 03:22:00,
2013-01-21 19:32:00,51.0,0.0,-100.00,NNE,16,12.0,19.0,12,-99.99,,,-99.99,,2013-01-22 03:32:00,
2013-01-21 19:42:00,52.0,1.0,-100.00,NNE,22,14.0,22.0,12,-99.99,,,-99.99,,2013-01-22 03:42:00,
2013-01-21 19:52:00,52.0,1.0,-100.00,NNE,29,16.0,23.0,12,-99.99,,,-99.99,,2013-01-22 03:52:00,
2013-01-21 20:02:00,52.0,1.0,-100.00,NNE,30,17.0,24.0,12,-99.99,,,-99.99,,2013-01-22 04:02:00,
2013-01-21 20:12:00,52.0,1.0,-100.00,NNE,30,15.0,22.0,12,-99.99,,,-99.99,,2013-01-22 04:12:00,
2013-01-21 20:22:00,52.0,1.0,-100.00,NNE,24,13.0,23.0,12,-99.99,,,-99.99,,2013-01-22 04:22:00,
2013-01-21 20:32:00,52.0,1.0,-100.00,NNE,24,14.0,25.0,12,-99.99,,,-99.99,,2013-01-22 04:32:00,
2013-01-21 20:42:00,52.0,1.0,-100.00,NNE,25,14.0,25.0,12,-99.99,,,-99.99,,2013-01-22 04:42:00,
2013-01-21 20:52:00,52.0,1.0,-100.00,NNE,17,13.0,25.0,12,-99.99,,,-99.99,,2013-01-22 04:52:00,
2013-01-21 21:03:00,52.0,1.0,-100.00,NNE,17,13.0,25.0,12,-99.99,,,-99.99,,2013-01-22 05:03:00,
2013-01-21 21:12:00,52.0,-1.0,-100.00,NNE,29,15.0,26.0,11,-99.99,,,-99.99,,2013-01-22 05:12:00,
2013-01-21 21:22:00,53.0,0.0,-100.00,NE,35,15.0,25.0,11,-99.99,,,-99.99,,2013-01-22 05:22:00,
2013-01-21 21:32:00,53.0,0.0,-100.00,NE,37,15.0,21.0,11,-99.99,,,-99.99,,2013-01-22 05:32:00,
2013-01-21 21:42:00,53.0,0.0,-100.00,NE,46,18.0,26.0,11,-99.99,,,-99.99,,2013-01-22 05:42:00,
2013-01-21 21:52:00,53.0,0.0,-100.00,NE,43,17.0,26.0,11,-99.99,,,-99.99,,2013-01-22 05:52:00,
2013-01-21 22:02:00,53.0,0.0,-100.00,NE,37,16.0,24.0,11,-99.99,,,-99.99,,2013-01-22 06:02:00,
2013-01-21 22:12:00,53.0,0.0,-100.00,NNE,33,15.0,22.0,11,-99.99,,,-99.99,,2013-01-22 06:12:00,
2013-01-21 22:22:00,53.0,0.0,-100.00,NNE,32,13.0,19.0,11,-99.99,,,-99.99,,2013-01-22 06:22:00,
2013-01-21 22:32:00,53.0,0.0,-100.00,NE,38,15.0,24.0,11,-99.99,,,-99.99,,2013-01-22 06:32:00,
2013-01-21 22:42:00,53.0,0.0,-100.00,NE,34,14.0,20.0,11,-99.99,,,-99.99,,2013-01-22 06:42:00,
2013-01-21 22:52:00,53.0,0.0,-100.00,NE,40,15.0,22.0,11,-99.99,,,-99.99,,2013-01-22 06:52:00,
2013-01-21 23:02:00,53.0,0.0,-100.00,NE,40,15.0,22.0,11,-99.99,,,-99.99,,2013-01-22 07:02:00,
2013-01-21 23:11:00,53.0,0.0,-100.00,NE,44,15.0,22.0,11,-99.99,,,-99.99,,2013-01-22 07:11:00,
2013-01-21 23:22:00,53.0,0.0,-100.00,NNE,33,13.0,19.0,11,-99.99,,,-99.99,,2013-01-22 07:22:00,
2013-01-21 23:32:00,52.0,-1.0,-100.00,NNE,33,12.0,20.0,11,-99.99,,,-99.99,,2013-01-22 07:32:00,
2013-01-21 23:52:00,53.0,0.0,-100.00,NE,40,14.0,21.0,11,-99.99,,,-99.99,,2013-01-22 07:52:00,